sensor_id;sensor_type;location;lat;lon;timestamp;P1;durP1;ratioP1;P2;durP2;ratioP2
1847;SDS011;924;52.448;13.356;2022-07-09T00:00:30;2.47;;;1.77;;
1847;SDS011;924;52.448;13.356;2022-07-09T00:02:55;2.83;;;2.43;;
1847;SDS011;924;52.448;13.356;2022-07-09T00:05:20;4.37;;;2.43;;
1847;SDS011;924;52.448;13.356;2022-07-09T00:07:45;2.53;;;2.00;;
1847;SDS011;924;52.448;13.356;2022-07-09T00:10:10;3.93;;;2.50;;
1847;SDS011;924;52.448;13.356;2022-07-09T00:12:36;2.63;;;2.40;;
1847;SDS011;924;52.448;13.356;2022-07-09T00:15:02;4.73;;;3.30;;
1847;SDS011;924;52.448;13.356;2022-07-09T00:17:27;3.30;;;2.50;;
1847;SDS011;924;52.448;13.356;2022-07-09T00:19:54;4.47;;;2.20;;
1847;SDS011;924;52.448;13.356;2022-07-09T00:22:20;3.03;;;2.60;;
1847;SDS011;924;52.448;13.356;2022-07-09T00:24:45;3.33;;;2.20;;
1847;SDS011;924;52.448;13.356;2022-07-09T00:27:10;3.33;;;2.37;;
1847;SDS011;924;52.448;13.356;2022-07-09T00:29:36;4.23;;;2.40;;
1847;SDS011;924;52.448;13.356;2022-07-09T00:32:01;2.57;;;2.37;;
1847;SDS011;924;52.448;13.356;2022-07-09T00:34:26;5.83;;;2.67;;
1847;SDS011;924;52.448;13.356;2022-07-09T00:36:51;3.97;;;2.50;;
1847;SDS011;924;52.448;13.356;2022-07-09T00:39:16;2.77;;;2.10;;
1847;SDS011;924;52.448;13.356;2022-07-09T00:41:42;3.90;;;2.20;;
1847;SDS011;924;52.448;13.356;2022-07-09T00:44:07;3.10;;;2.80;;
1847;SDS011;924;52.448;13.356;2022-07-09T00:46:32;2.87;;;2.40;;
1847;SDS011;924;52.448;13.356;2022-07-09T00:48:57;5.20;;;2.53;;
1847;SDS011;924;52.448;13.356;2022-07-09T00:51:28;3.10;;;2.47;;
1847;SDS011;924;52.448;13.356;2022-07-09T00:53:54;4.53;;;2.53;;
1847;SDS011;924;52.448;13.356;2022-07-09T00:56:19;3.57;;;2.27;;
1847;SDS011;924;52.448;13.356;2022-07-09T00:58:44;3.43;;;2.70;;
1847;SDS011;924;52.448;13.356;2022-07-09T01:01:09;5.10;;;2.60;;
1847;SDS011;924;52.448;13.356;2022-07-09T01:03:35;3.67;;;2.53;;
1847;SDS011;924;52.448;13.356;2022-07-09T01:06:00;3.87;;;2.50;;
1847;SDS011;924;52.448;13.356;2022-07-09T01:08:26;2.27;;;2.07;;
1847;SDS011;924;52.448;13.356;2022-07-09T01:10:51;5.40;;;2.60;;
1847;SDS011;924;52.448;13.356;2022-07-09T01:13:16;4.60;;;2.57;;
1847;SDS011;924;52.448;13.356;2022-07-09T01:15:42;4.10;;;3.10;;
1847;SDS011;924;52.448;13.356;2022-07-09T01:18:10;5.63;;;2.57;;
1847;SDS011;924;52.448;13.356;2022-07-09T01:20:36;3.47;;;3.07;;
1847;SDS011;924;52.448;13.356;2022-07-09T01:23:01;3.93;;;2.73;;
1847;SDS011;924;52.448;13.356;2022-07-09T01:25:36;2.73;;;2.50;;
1847;SDS011;924;52.448;13.356;2022-07-09T01:28:02;5.27;;;2.67;;
1847;SDS011;924;52.448;13.356;2022-07-09T01:30:30;2.93;;;2.63;;
1847;SDS011;924;52.448;13.356;2022-07-09T01:32:56;4.17;;;3.17;;
1847;SDS011;924;52.448;13.356;2022-07-09T01:35:21;4.93;;;2.60;;
1847;SDS011;924;52.448;13.356;2022-07-09T01:37:46;4.40;;;2.67;;
1847;SDS011;924;52.448;13.356;2022-07-09T01:40:12;3.90;;;2.80;;
1847;SDS011;924;52.448;13.356;2022-07-09T01:42:37;5.50;;;3.00;;
1847;SDS011;924;52.448;13.356;2022-07-09T01:45:02;5.23;;;4.20;;
1847;SDS011;924;52.448;13.356;2022-07-09T01:47:27;4.77;;;3.10;;
1847;SDS011;924;52.448;13.356;2022-07-09T01:49:53;3.43;;;3.00;;
1847;SDS011;924;52.448;13.356;2022-07-09T01:52:18;6.50;;;4.03;;
1847;SDS011;924;52.448;13.356;2022-07-09T01:54:43;8.37;;;3.00;;
1847;SDS011;924;52.448;13.356;2022-07-09T01:57:08;3.37;;;3.00;;
1847;SDS011;924;52.448;13.356;2022-07-09T01:59:33;8.60;;;3.50;;
1847;SDS011;924;52.448;13.356;2022-07-09T02:01:59;4.57;;;2.87;;
1847;SDS011;924;52.448;13.356;2022-07-09T02:04:24;5.47;;;2.37;;
1847;SDS011;924;52.448;13.356;2022-07-09T02:06:49;5.43;;;3.00;;
1847;SDS011;924;52.448;13.356;2022-07-09T02:09:15;8.47;;;3.83;;
1847;SDS011;924;52.448;13.356;2022-07-09T02:11:40;4.10;;;2.87;;
1847;SDS011;924;52.448;13.356;2022-07-09T02:14:05;4.40;;;2.90;;
1847;SDS011;924;52.448;13.356;2022-07-09T02:16:31;5.70;;;3.60;;
1847;SDS011;924;52.448;13.356;2022-07-09T02:18:56;7.13;;;3.73;;
1847;SDS011;924;52.448;13.356;2022-07-09T02:21:21;8.53;;;3.60;;
1847;SDS011;924;52.448;13.356;2022-07-09T02:23:46;4.30;;;2.80;;
1847;SDS011;924;52.448;13.356;2022-07-09T02:26:13;5.70;;;4.30;;
1847;SDS011;924;52.448;13.356;2022-07-09T02:28:39;4.67;;;3.90;;
1847;SDS011;924;52.448;13.356;2022-07-09T02:31:04;3.60;;;3.30;;
1847;SDS011;924;52.448;13.356;2022-07-09T02:33:29;4.43;;;3.47;;
1847;SDS011;924;52.448;13.356;2022-07-09T02:35:56;6.33;;;3.73;;
1847;SDS011;924;52.448;13.356;2022-07-09T02:38:21;3.97;;;3.20;;
1847;SDS011;924;52.448;13.356;2022-07-09T02:40:47;5.83;;;4.47;;
1847;SDS011;924;52.448;13.356;2022-07-09T02:43:12;6.93;;;3.90;;
1847;SDS011;924;52.448;13.356;2022-07-09T02:45:37;5.17;;;3.90;;
1847;SDS011;924;52.448;13.356;2022-07-09T02:48:02;8.60;;;4.20;;
1847;SDS011;924;52.448;13.356;2022-07-09T02:50:27;6.20;;;4.10;;
1847;SDS011;924;52.448;13.356;2022-07-09T02:52:53;7.90;;;5.00;;
1847;SDS011;924;52.448;13.356;2022-07-09T02:55:18;4.80;;;3.80;;
1847;SDS011;924;52.448;13.356;2022-07-09T02:57:43;8.23;;;4.50;;
1847;SDS011;924;52.448;13.356;2022-07-09T03:00:09;5.03;;;4.53;;
1847;SDS011;924;52.448;13.356;2022-07-09T03:02:34;5.80;;;4.03;;
1847;SDS011;924;52.448;13.356;2022-07-09T03:04:59;5.87;;;3.80;;
1847;SDS011;924;52.448;13.356;2022-07-09T03:07:25;5.47;;;4.73;;
1847;SDS011;924;52.448;13.356;2022-07-09T03:09:51;5.73;;;4.50;;
1847;SDS011;924;52.448;13.356;2022-07-09T03:12:16;8.83;;;4.10;;
1847;SDS011;924;52.448;13.356;2022-07-09T03:14:41;8.63;;;4.37;;
1847;SDS011;924;52.448;13.356;2022-07-09T03:17:06;8.53;;;4.07;;
1847;SDS011;924;52.448;13.356;2022-07-09T03:19:32;6.00;;;3.73;;
1847;SDS011;924;52.448;13.356;2022-07-09T03:21:57;6.17;;;4.73;;
1847;SDS011;924;52.448;13.356;2022-07-09T03:24:22;7.57;;;4.00;;
1847;SDS011;924;52.448;13.356;2022-07-09T03:26:47;6.70;;;4.30;;
1847;SDS011;924;52.448;13.356;2022-07-09T03:29:13;8.13;;;4.43;;
1847;SDS011;924;52.448;13.356;2022-07-09T03:31:38;7.80;;;4.10;;
1847;SDS011;924;52.448;13.356;2022-07-09T03:34:03;5.60;;;4.00;;
1847;SDS011;924;52.448;13.356;2022-07-09T03:36:30;8.80;;;4.77;;
1847;SDS011;924;52.448;13.356;2022-07-09T03:38:56;5.90;;;4.40;;
1847;SDS011;924;52.448;13.356;2022-07-09T03:41:21;7.50;;;4.33;;
1847;SDS011;924;52.448;13.356;2022-07-09T03:43:46;5.57;;;4.50;;
1847;SDS011;924;52.448;13.356;2022-07-09T03:46:11;7.73;;;5.23;;
1847;SDS011;924;52.448;13.356;2022-07-09T03:48:37;6.70;;;3.77;;
1847;SDS011;924;52.448;13.356;2022-07-09T03:51:02;5.97;;;3.60;;
1847;SDS011;924;52.448;13.356;2022-07-09T03:53:27;6.40;;;3.40;;
1847;SDS011;924;52.448;13.356;2022-07-09T03:55:52;6.77;;;3.87;;
1847;SDS011;924;52.448;13.356;2022-07-09T03:58:17;4.00;;;3.60;;
1847;SDS011;924;52.448;13.356;2022-07-09T04:00:43;4.03;;;3.60;;
1847;SDS011;924;52.448;13.356;2022-07-09T04:03:08;7.00;;;4.20;;
1847;SDS011;924;52.448;13.356;2022-07-09T04:05:33;4.70;;;3.33;;
1847;SDS011;924;52.448;13.356;2022-07-09T04:07:59;4.83;;;3.23;;
1847;SDS011;924;52.448;13.356;2022-07-09T04:10:24;5.80;;;4.00;;
1847;SDS011;924;52.448;13.356;2022-07-09T04:12:49;4.43;;;3.20;;
1847;SDS011;924;52.448;13.356;2022-07-09T04:15:14;5.77;;;3.37;;
1847;SDS011;924;52.448;13.356;2022-07-09T04:17:39;7.90;;;3.93;;
1847;SDS011;924;52.448;13.356;2022-07-09T04:20:05;6.00;;;3.50;;
1847;SDS011;924;52.448;13.356;2022-07-09T04:22:30;3.73;;;3.30;;
1847;SDS011;924;52.448;13.356;2022-07-09T04:24:56;6.50;;;3.50;;
1847;SDS011;924;52.448;13.356;2022-07-09T04:27:21;3.20;;;2.83;;
1847;SDS011;924;52.448;13.356;2022-07-09T04:29:46;4.20;;;2.47;;
1847;SDS011;924;52.448;13.356;2022-07-09T04:32:11;5.63;;;3.13;;
1847;SDS011;924;52.448;13.356;2022-07-09T04:34:37;5.70;;;3.50;;
1847;SDS011;924;52.448;13.356;2022-07-09T04:37:03;5.47;;;3.27;;
1847;SDS011;924;52.448;13.356;2022-07-09T04:39:28;4.47;;;3.43;;
1847;SDS011;924;52.448;13.356;2022-07-09T04:41:53;4.93;;;2.80;;
1847;SDS011;924;52.448;13.356;2022-07-09T04:44:18;4.50;;;3.40;;
1847;SDS011;924;52.448;13.356;2022-07-09T04:46:44;4.30;;;3.37;;
1847;SDS011;924;52.448;13.356;2022-07-09T04:49:09;6.43;;;4.70;;
1847;SDS011;924;52.448;13.356;2022-07-09T04:51:35;4.50;;;2.97;;
1847;SDS011;924;52.448;13.356;2022-07-09T04:54:00;4.97;;;3.60;;
1847;SDS011;924;52.448;13.356;2022-07-09T04:56:25;6.90;;;3.80;;
1847;SDS011;924;52.448;13.356;2022-07-09T04:58:50;4.13;;;3.30;;
1847;SDS011;924;52.448;13.356;2022-07-09T05:01:19;4.67;;;3.40;;
1847;SDS011;924;52.448;13.356;2022-07-09T05:03:44;3.63;;;3.10;;
1847;SDS011;924;52.448;13.356;2022-07-09T05:06:11;5.10;;;3.83;;
1847;SDS011;924;52.448;13.356;2022-07-09T05:08:37;5.67;;;3.20;;
1847;SDS011;924;52.448;13.356;2022-07-09T05:11:02;8.53;;;3.83;;
1847;SDS011;924;52.448;13.356;2022-07-09T05:13:27;4.30;;;3.90;;
1847;SDS011;924;52.448;13.356;2022-07-09T05:15:52;5.33;;;3.40;;
1847;SDS011;924;52.448;13.356;2022-07-09T05:18:17;4.83;;;3.40;;
1847;SDS011;924;52.448;13.356;2022-07-09T05:20:43;4.33;;;2.80;;
1847;SDS011;924;52.448;13.356;2022-07-09T05:23:08;5.07;;;3.07;;
1847;SDS011;924;52.448;13.356;2022-07-09T05:25:33;3.87;;;2.90;;
1847;SDS011;924;52.448;13.356;2022-07-09T05:27:59;5.20;;;3.00;;
1847;SDS011;924;52.448;13.356;2022-07-09T05:30:24;4.60;;;3.77;;
1847;SDS011;924;52.448;13.356;2022-07-09T05:32:49;6.47;;;3.03;;
1847;SDS011;924;52.448;13.356;2022-07-09T05:35:14;4.50;;;3.33;;
1847;SDS011;924;52.448;13.356;2022-07-09T05:37:40;6.70;;;3.80;;
1847;SDS011;924;52.448;13.356;2022-07-09T05:40:05;3.50;;;3.00;;
1847;SDS011;924;52.448;13.356;2022-07-09T05:42:31;6.23;;;3.00;;
1847;SDS011;924;52.448;13.356;2022-07-09T05:44:57;7.10;;;3.60;;
1847;SDS011;924;52.448;13.356;2022-07-09T05:47:22;5.20;;;3.77;;
1847;SDS011;924;52.448;13.356;2022-07-09T05:49:48;4.03;;;3.23;;
1847;SDS011;924;52.448;13.356;2022-07-09T05:52:13;5.70;;;3.70;;
1847;SDS011;924;52.448;13.356;2022-07-09T05:54:39;4.10;;;3.20;;
1847;SDS011;924;52.448;13.356;2022-07-09T05:57:05;5.30;;;3.40;;
1847;SDS011;924;52.448;13.356;2022-07-09T05:59:31;4.33;;;3.17;;
1847;SDS011;924;52.448;13.356;2022-07-09T06:01:56;4.27;;;3.67;;
1847;SDS011;924;52.448;13.356;2022-07-09T06:04:21;4.60;;;3.60;;
1847;SDS011;924;52.448;13.356;2022-07-09T06:06:47;8.17;;;4.20;;
1847;SDS011;924;52.448;13.356;2022-07-09T06:09:12;4.70;;;4.03;;
1847;SDS011;924;52.448;13.356;2022-07-09T06:11:37;7.83;;;4.07;;
1847;SDS011;924;52.448;13.356;2022-07-09T06:14:02;5.70;;;3.43;;
1847;SDS011;924;52.448;13.356;2022-07-09T06:16:28;5.10;;;3.67;;
1847;SDS011;924;52.448;13.356;2022-07-09T06:18:53;3.77;;;3.43;;
1847;SDS011;924;52.448;13.356;2022-07-09T06:21:18;4.80;;;3.30;;
1847;SDS011;924;52.448;13.356;2022-07-09T06:23:44;5.67;;;3.93;;
1847;SDS011;924;52.448;13.356;2022-07-09T06:26:09;4.80;;;3.83;;
1847;SDS011;924;52.448;13.356;2022-07-09T06:28:38;3.97;;;3.43;;
1847;SDS011;924;52.448;13.356;2022-07-09T06:31:03;4.53;;;3.53;;
1847;SDS011;924;52.448;13.356;2022-07-09T06:33:28;3.90;;;3.13;;
1847;SDS011;924;52.448;13.356;2022-07-09T06:35:53;4.87;;;3.60;;
1847;SDS011;924;52.448;13.356;2022-07-09T06:38:19;4.47;;;3.43;;
1847;SDS011;924;52.448;13.356;2022-07-09T06:40:44;6.30;;;3.47;;
1847;SDS011;924;52.448;13.356;2022-07-09T06:43:09;5.07;;;2.83;;
1847;SDS011;924;52.448;13.356;2022-07-09T06:45:36;3.63;;;2.93;;
1847;SDS011;924;52.448;13.356;2022-07-09T06:48:01;3.53;;;2.87;;
1847;SDS011;924;52.448;13.356;2022-07-09T06:50:26;4.53;;;3.47;;
1847;SDS011;924;52.448;13.356;2022-07-09T06:52:52;6.13;;;3.07;;
1847;SDS011;924;52.448;13.356;2022-07-09T06:55:17;6.57;;;3.60;;
1847;SDS011;924;52.448;13.356;2022-07-09T06:57:42;5.90;;;3.10;;
1847;SDS011;924;52.448;13.356;2022-07-09T07:00:07;7.20;;;3.67;;
1847;SDS011;924;52.448;13.356;2022-07-09T07:02:33;3.50;;;2.57;;
1847;SDS011;924;52.448;13.356;2022-07-09T07:04:58;2.80;;;2.60;;
1847;SDS011;924;52.448;13.356;2022-07-09T07:07:23;3.70;;;3.30;;
1847;SDS011;924;52.448;13.356;2022-07-09T07:09:49;4.47;;;2.73;;
1847;SDS011;924;52.448;13.356;2022-07-09T07:12:14;5.90;;;3.03;;
1847;SDS011;924;52.448;13.356;2022-07-09T07:14:40;7.20;;;3.13;;
1847;SDS011;924;52.448;13.356;2022-07-09T07:17:05;4.53;;;3.30;;
1847;SDS011;924;52.448;13.356;2022-07-09T07:19:30;5.23;;;3.00;;
1847;SDS011;924;52.448;13.356;2022-07-09T07:21:55;3.50;;;2.60;;
1847;SDS011;924;52.448;13.356;2022-07-09T07:24:21;5.30;;;2.90;;
1847;SDS011;924;52.448;13.356;2022-07-09T07:26:46;4.93;;;2.70;;
1847;SDS011;924;52.448;13.356;2022-07-09T07:29:11;4.43;;;2.70;;
1847;SDS011;924;52.448;13.356;2022-07-09T07:31:36;3.90;;;3.20;;
1847;SDS011;924;52.448;13.356;2022-07-09T07:34:02;4.30;;;2.77;;
1847;SDS011;924;52.448;13.356;2022-07-09T07:36:27;3.40;;;2.40;;
1847;SDS011;924;52.448;13.356;2022-07-09T07:38:52;5.60;;;3.00;;
1847;SDS011;924;52.448;13.356;2022-07-09T07:41:18;2.90;;;2.70;;
1847;SDS011;924;52.448;13.356;2022-07-09T07:43:43;3.00;;;2.33;;
1847;SDS011;924;52.448;13.356;2022-07-09T07:46:09;2.30;;;2.10;;
1847;SDS011;924;52.448;13.356;2022-07-09T07:48:34;5.83;;;2.90;;
1847;SDS011;924;52.448;13.356;2022-07-09T07:51:02;3.90;;;2.57;;
1847;SDS011;924;52.448;13.356;2022-07-09T07:53:29;3.40;;;2.53;;
1847;SDS011;924;52.448;13.356;2022-07-09T07:55:54;5.20;;;2.43;;
1847;SDS011;924;52.448;13.356;2022-07-09T07:58:20;3.93;;;2.90;;
1847;SDS011;924;52.448;13.356;2022-07-09T08:00:45;3.60;;;2.50;;
1847;SDS011;924;52.448;13.356;2022-07-09T08:03:10;4.47;;;2.70;;
1847;SDS011;924;52.448;13.356;2022-07-09T08:05:36;3.83;;;2.37;;
1847;SDS011;924;52.448;13.356;2022-07-09T08:08:01;3.03;;;2.37;;
1847;SDS011;924;52.448;13.356;2022-07-09T08:10:26;3.40;;;2.70;;
1847;SDS011;924;52.448;13.356;2022-07-09T08:12:52;5.97;;;3.57;;
1847;SDS011;924;52.448;13.356;2022-07-09T08:15:17;3.83;;;3.47;;
1847;SDS011;924;52.448;13.356;2022-07-09T08:17:43;4.90;;;3.10;;
1847;SDS011;924;52.448;13.356;2022-07-09T08:20:09;7.23;;;3.13;;
1847;SDS011;924;52.448;13.356;2022-07-09T08:22:35;3.20;;;2.90;;
1847;SDS011;924;52.448;13.356;2022-07-09T08:25:01;5.50;;;2.90;;
1847;SDS011;924;52.448;13.356;2022-07-09T08:27:26;3.00;;;2.50;;
1847;SDS011;924;52.448;13.356;2022-07-09T08:29:51;6.60;;;3.30;;
1847;SDS011;924;52.448;13.356;2022-07-09T08:32:16;2.83;;;2.53;;
1847;SDS011;924;52.448;13.356;2022-07-09T08:34:41;4.73;;;2.87;;
1847;SDS011;924;52.448;13.356;2022-07-09T08:37:07;5.73;;;3.90;;
1847;SDS011;924;52.448;13.356;2022-07-09T08:39:32;5.83;;;3.67;;
1847;SDS011;924;52.448;13.356;2022-07-09T08:41:58;5.10;;;3.23;;
1847;SDS011;924;52.448;13.356;2022-07-09T08:44:24;3.47;;;3.17;;
1847;SDS011;924;52.448;13.356;2022-07-09T08:46:51;5.43;;;3.67;;
1847;SDS011;924;52.448;13.356;2022-07-09T08:49:16;3.63;;;2.83;;
1847;SDS011;924;52.448;13.356;2022-07-09T08:51:41;5.50;;;3.80;;
1847;SDS011;924;52.448;13.356;2022-07-09T08:54:08;4.93;;;3.30;;
1847;SDS011;924;52.448;13.356;2022-07-09T08:56:33;3.83;;;3.20;;
1847;SDS011;924;52.448;13.356;2022-07-09T08:58:58;4.67;;;3.13;;
1847;SDS011;924;52.448;13.356;2022-07-09T09:01:24;3.30;;;3.00;;
1847;SDS011;924;52.448;13.356;2022-07-09T09:03:50;5.23;;;3.33;;
1847;SDS011;924;52.448;13.356;2022-07-09T09:06:15;3.20;;;2.80;;
1847;SDS011;924;52.448;13.356;2022-07-09T09:08:42;4.00;;;3.40;;
1847;SDS011;924;52.448;13.356;2022-07-09T09:11:19;3.10;;;2.80;;
1847;SDS011;924;52.448;13.356;2022-07-09T09:13:46;2.90;;;2.63;;
1847;SDS011;924;52.448;13.356;2022-07-09T09:16:11;5.10;;;2.97;;
1847;SDS011;924;52.448;13.356;2022-07-09T09:18:41;7.50;;;2.80;;
1847;SDS011;924;52.448;13.356;2022-07-09T09:21:07;3.00;;;2.70;;
1847;SDS011;924;52.448;13.356;2022-07-09T09:26:07;3.13;;;2.70;;
1847;SDS011;924;52.448;13.356;2022-07-09T09:28:33;2.50;;;2.30;;
1847;SDS011;924;52.448;13.356;2022-07-09T09:30:58;4.33;;;2.70;;
1847;SDS011;924;52.448;13.356;2022-07-09T09:33:23;4.40;;;2.50;;
1847;SDS011;924;52.448;13.356;2022-07-09T09:35:48;4.43;;;3.00;;
1847;SDS011;924;52.448;13.356;2022-07-09T09:38:14;6.27;;;3.13;;
1847;SDS011;924;52.448;13.356;2022-07-09T09:40:44;3.37;;;3.07;;
1847;SDS011;924;52.448;13.356;2022-07-09T09:43:09;3.67;;;3.37;;
1847;SDS011;924;52.448;13.356;2022-07-09T09:45:35;4.23;;;3.63;;
1847;SDS011;924;52.448;13.356;2022-07-09T09:48:00;4.60;;;3.70;;
1847;SDS011;924;52.448;13.356;2022-07-09T09:50:27;4.50;;;3.57;;
1847;SDS011;924;52.448;13.356;2022-07-09T09:52:53;3.77;;;3.40;;
1847;SDS011;924;52.448;13.356;2022-07-09T09:55:19;4.57;;;3.37;;
1847;SDS011;924;52.448;13.356;2022-07-09T09:57:45;5.10;;;3.80;;
1847;SDS011;924;52.448;13.356;2022-07-09T10:00:12;4.40;;;4.00;;
1847;SDS011;924;52.448;13.356;2022-07-09T10:02:38;4.43;;;3.57;;
1847;SDS011;924;52.448;13.356;2022-07-09T10:05:03;5.03;;;3.93;;
1847;SDS011;924;52.448;13.356;2022-07-09T10:07:29;4.30;;;3.90;;
1847;SDS011;924;52.448;13.356;2022-07-09T10:09:55;4.57;;;3.80;;
1847;SDS011;924;52.448;13.356;2022-07-09T10:12:28;4.67;;;4.17;;
1847;SDS011;924;52.448;13.356;2022-07-09T10:14:54;6.83;;;4.60;;
1847;SDS011;924;52.448;13.356;2022-07-09T10:17:19;5.20;;;4.50;;
1847;SDS011;924;52.448;13.356;2022-07-09T10:19:54;3.90;;;3.33;;
1847;SDS011;924;52.448;13.356;2022-07-09T10:22:41;4.47;;;3.67;;
1847;SDS011;924;52.448;13.356;2022-07-09T10:25:06;5.77;;;4.20;;
1847;SDS011;924;52.448;13.356;2022-07-09T10:27:44;5.30;;;3.93;;
1847;SDS011;924;52.448;13.356;2022-07-09T10:30:21;4.30;;;3.73;;
1847;SDS011;924;52.448;13.356;2022-07-09T10:32:47;4.30;;;3.50;;
1847;SDS011;924;52.448;13.356;2022-07-09T10:35:26;4.63;;;3.50;;
1847;SDS011;924;52.448;13.356;2022-07-09T10:37:52;6.10;;;3.37;;
1847;SDS011;924;52.448;13.356;2022-07-09T10:40:18;4.20;;;3.50;;
1847;SDS011;924;52.448;13.356;2022-07-09T10:42:44;5.97;;;3.30;;
1847;SDS011;924;52.448;13.356;2022-07-09T10:45:26;3.90;;;3.53;;
1847;SDS011;924;52.448;13.356;2022-07-09T10:47:56;5.97;;;3.60;;
1847;SDS011;924;52.448;13.356;2022-07-09T10:50:21;5.27;;;2.93;;
1847;SDS011;924;52.448;13.356;2022-07-09T10:52:48;4.73;;;3.23;;
1847;SDS011;924;52.448;13.356;2022-07-09T10:55:15;4.83;;;3.37;;
1847;SDS011;924;52.448;13.356;2022-07-09T10:57:40;3.30;;;3.00;;
1847;SDS011;924;52.448;13.356;2022-07-09T11:00:06;4.80;;;3.50;;
1847;SDS011;924;52.448;13.356;2022-07-09T11:02:32;5.03;;;3.10;;
1847;SDS011;924;52.448;13.356;2022-07-09T11:04:57;5.13;;;3.27;;
1847;SDS011;924;52.448;13.356;2022-07-09T11:07:23;5.10;;;3.27;;
1847;SDS011;924;52.448;13.356;2022-07-09T11:09:49;3.07;;;2.60;;
1847;SDS011;924;52.448;13.356;2022-07-09T11:12:15;2.80;;;2.60;;
1847;SDS011;924;52.448;13.356;2022-07-09T11:14:44;5.57;;;2.90;;
1847;SDS011;924;52.448;13.356;2022-07-09T11:17:13;2.93;;;2.57;;
1847;SDS011;924;52.448;13.356;2022-07-09T11:19:38;1.93;;;1.80;;
1847;SDS011;924;52.448;13.356;2022-07-09T11:22:04;3.73;;;2.83;;
1847;SDS011;924;52.448;13.356;2022-07-09T11:24:29;4.83;;;3.07;;
1847;SDS011;924;52.448;13.356;2022-07-09T11:26:55;2.83;;;2.63;;
1847;SDS011;924;52.448;13.356;2022-07-09T11:29:20;3.17;;;2.57;;
1847;SDS011;924;52.448;13.356;2022-07-09T11:31:48;6.27;;;2.53;;
1847;SDS011;924;52.448;13.356;2022-07-09T11:34:17;4.10;;;3.00;;
1847;SDS011;924;52.448;13.356;2022-07-09T11:36:43;2.80;;;2.40;;
1847;SDS011;924;52.448;13.356;2022-07-09T11:39:09;2.63;;;2.00;;
1847;SDS011;924;52.448;13.356;2022-07-09T11:41:44;3.47;;;2.70;;
1847;SDS011;924;52.448;13.356;2022-07-09T11:44:09;4.93;;;2.50;;
1847;SDS011;924;52.448;13.356;2022-07-09T11:46:37;4.07;;;3.23;;
1847;SDS011;924;52.448;13.356;2022-07-09T11:49:02;5.37;;;2.67;;
1847;SDS011;924;52.448;13.356;2022-07-09T11:51:30;6.67;;;3.20;;
1847;SDS011;924;52.448;13.356;2022-07-09T11:53:56;2.40;;;2.20;;
1847;SDS011;924;52.448;13.356;2022-07-09T11:56:21;2.77;;;2.20;;
1847;SDS011;924;52.448;13.356;2022-07-09T11:58:50;2.90;;;2.13;;
1847;SDS011;924;52.448;13.356;2022-07-09T12:01:15;5.30;;;2.83;;
1847;SDS011;924;52.448;13.356;2022-07-09T12:03:46;2.67;;;2.00;;
1847;SDS011;924;52.448;13.356;2022-07-09T12:06:12;4.00;;;2.60;;
1847;SDS011;924;52.448;13.356;2022-07-09T12:08:39;2.87;;;2.53;;
1847;SDS011;924;52.448;13.356;2022-07-09T12:11:04;3.00;;;2.00;;
1847;SDS011;924;52.448;13.356;2022-07-09T12:13:29;2.70;;;2.50;;
1847;SDS011;924;52.448;13.356;2022-07-09T12:15:55;2.80;;;1.70;;
1847;SDS011;924;52.448;13.356;2022-07-09T12:18:20;2.40;;;2.20;;
1847;SDS011;924;52.448;13.356;2022-07-09T12:20:45;4.30;;;2.60;;
1847;SDS011;924;52.448;13.356;2022-07-09T12:23:10;3.57;;;2.20;;
1847;SDS011;924;52.448;13.356;2022-07-09T12:25:36;2.50;;;2.30;;
1847;SDS011;924;52.448;13.356;2022-07-09T12:28:01;2.47;;;1.70;;
1847;SDS011;924;52.448;13.356;2022-07-09T12:30:26;2.30;;;2.10;;
1847;SDS011;924;52.448;13.356;2022-07-09T12:32:54;3.00;;;2.53;;
1847;SDS011;924;52.448;13.356;2022-07-09T12:35:20;3.10;;;1.90;;
1847;SDS011;924;52.448;13.356;2022-07-09T12:37:46;3.83;;;2.10;;
1847;SDS011;924;52.448;13.356;2022-07-09T12:40:11;3.47;;;1.90;;
1847;SDS011;924;52.448;13.356;2022-07-09T12:42:37;2.50;;;1.80;;
1847;SDS011;924;52.448;13.356;2022-07-09T12:45:02;2.17;;;2.07;;
1847;SDS011;924;52.448;13.356;2022-07-09T12:47:28;4.90;;;2.50;;
1847;SDS011;924;52.448;13.356;2022-07-09T12:49:53;5.03;;;3.03;;
1847;SDS011;924;52.448;13.356;2022-07-09T12:52:18;7.53;;;5.27;;
1847;SDS011;924;52.448;13.356;2022-07-09T12:54:43;4.80;;;3.53;;
1847;SDS011;924;52.448;13.356;2022-07-09T12:57:09;7.33;;;4.23;;
1847;SDS011;924;52.448;13.356;2022-07-09T12:59:34;5.80;;;3.80;;
1847;SDS011;924;52.448;13.356;2022-07-09T13:02:00;8.23;;;3.43;;
1847;SDS011;924;52.448;13.356;2022-07-09T13:04:25;5.07;;;3.20;;
1847;SDS011;924;52.448;13.356;2022-07-09T13:06:50;6.37;;;4.30;;
1847;SDS011;924;52.448;13.356;2022-07-09T13:09:15;3.83;;;3.23;;
1847;SDS011;924;52.448;13.356;2022-07-09T13:11:41;5.20;;;3.70;;
1847;SDS011;924;52.448;13.356;2022-07-09T13:14:06;6.20;;;3.83;;
1847;SDS011;924;52.448;13.356;2022-07-09T13:16:32;4.63;;;3.70;;
1847;SDS011;924;52.448;13.356;2022-07-09T13:18:59;6.10;;;4.23;;
1847;SDS011;924;52.448;13.356;2022-07-09T13:21:24;3.80;;;3.50;;
1847;SDS011;924;52.448;13.356;2022-07-09T13:23:49;3.40;;;2.70;;
1847;SDS011;924;52.448;13.356;2022-07-09T13:26:15;2.67;;;2.43;;
1847;SDS011;924;52.448;13.356;2022-07-09T13:28:40;2.90;;;2.70;;
1847;SDS011;924;52.448;13.356;2022-07-09T13:31:06;3.13;;;2.83;;
1847;SDS011;924;52.448;13.356;2022-07-09T13:33:35;3.67;;;2.93;;
1847;SDS011;924;52.448;13.356;2022-07-09T13:36:01;3.20;;;2.90;;
1847;SDS011;924;52.448;13.356;2022-07-09T13:38:26;3.70;;;3.50;;
1847;SDS011;924;52.448;13.356;2022-07-09T13:40:52;3.40;;;2.83;;
1847;SDS011;924;52.448;13.356;2022-07-09T13:43:17;4.20;;;3.10;;
1847;SDS011;924;52.448;13.356;2022-07-09T13:45:42;3.40;;;3.10;;
1847;SDS011;924;52.448;13.356;2022-07-09T13:48:08;3.00;;;2.70;;
1847;SDS011;924;52.448;13.356;2022-07-09T13:50:33;4.13;;;3.30;;
1847;SDS011;924;52.448;13.356;2022-07-09T13:52:58;2.93;;;2.73;;
1847;SDS011;924;52.448;13.356;2022-07-09T13:55:23;4.83;;;3.20;;
1847;SDS011;924;52.448;13.356;2022-07-09T13:57:49;4.30;;;3.10;;
1847;SDS011;924;52.448;13.356;2022-07-09T14:00:14;3.50;;;3.20;;
1847;SDS011;924;52.448;13.356;2022-07-09T14:02:39;3.10;;;2.80;;
1847;SDS011;924;52.448;13.356;2022-07-09T14:05:04;3.23;;;2.93;;
1847;SDS011;924;52.448;13.356;2022-07-09T14:07:30;3.63;;;3.10;;
1847;SDS011;924;52.448;13.356;2022-07-09T14:09:55;3.00;;;2.80;;
1847;SDS011;924;52.448;13.356;2022-07-09T14:12:21;3.40;;;3.10;;
1847;SDS011;924;52.448;13.356;2022-07-09T14:14:48;3.07;;;2.77;;
1847;SDS011;924;52.448;13.356;2022-07-09T14:17:13;2.73;;;2.53;;
1847;SDS011;924;52.448;13.356;2022-07-09T14:19:38;3.17;;;2.87;;
1847;SDS011;924;52.448;13.356;2022-07-09T14:22:03;4.33;;;2.63;;
1847;SDS011;924;52.448;13.356;2022-07-09T14:24:30;2.77;;;2.57;;
1847;SDS011;924;52.448;13.356;2022-07-09T14:26:55;3.40;;;3.00;;
1847;SDS011;924;52.448;13.356;2022-07-09T14:29:20;3.00;;;2.63;;
1847;SDS011;924;52.448;13.356;2022-07-09T14:31:46;3.20;;;2.90;;
1847;SDS011;924;52.448;13.356;2022-07-09T14:34:11;3.87;;;2.43;;
1847;SDS011;924;52.448;13.356;2022-07-09T14:36:36;2.87;;;2.67;;
1847;SDS011;924;52.448;13.356;2022-07-09T14:39:02;3.00;;;2.30;;
1847;SDS011;924;52.448;13.356;2022-07-09T14:41:28;2.53;;;2.30;;
1847;SDS011;924;52.448;13.356;2022-07-09T14:43:56;2.50;;;2.30;;
1847;SDS011;924;52.448;13.356;2022-07-09T14:46:21;3.77;;;2.03;;
1847;SDS011;924;52.448;13.356;2022-07-09T14:48:46;1.93;;;1.83;;
1847;SDS011;924;52.448;13.356;2022-07-09T14:51:11;4.03;;;1.70;;
1847;SDS011;924;52.448;13.356;2022-07-09T14:53:37;2.10;;;1.90;;
1847;SDS011;924;52.448;13.356;2022-07-09T14:56:02;2.33;;;2.13;;
1847;SDS011;924;52.448;13.356;2022-07-09T14:58:27;2.03;;;1.83;;
1847;SDS011;924;52.448;13.356;2022-07-09T15:00:53;2.57;;;1.73;;
1847;SDS011;924;52.448;13.356;2022-07-09T15:03:18;1.87;;;1.77;;
1847;SDS011;924;52.448;13.356;2022-07-09T15:05:43;2.20;;;1.70;;
1847;SDS011;924;52.448;13.356;2022-07-09T15:08:09;2.50;;;1.77;;